Time;durP1;ratioP1;P1;durP2;ratioP2;P2;SDS_P1;SDS_P2;PMS_P1;PMS_P2;Temp;Humidity;BMP_temperature;BMP_pressure;BME280_temperature;BME280_humidity;BME280_pressure;Samples;Min_cycle;Max_cycle;Signal;HPM_P1;HPM_P2
2021/11/04 00:01:06;;;;;;;43.30;24.80;;;;;;;4.98;82.88;99837.75;1655519;86;21509;-77
2021/11/04 00:03:33;;;;;;;;;;;;;;;5.01;82.89;99843.30;1655176;86;21080;-77
2021/11/04 00:05:59;;;;;;;36.40;21.35;;;;;;;5.03;83.02;99844.14;1656500;85;20267;-77
2021/11/04 00:08:25;;;;;;;32.05;20.75;;;;;;;5.07;82.94;99847.53;1656122;85;21485;-77
2021/11/04 00:10:51;;;;;;;40.20;21.57;;;;;;;5.09;82.93;99841.53;1632450;86;20937;-77
2021/11/04 00:13:17;;;;;;;35.20;21.85;;;;;;;5.10;82.98;99838.11;1656002;86;21761;-77
2021/11/04 00:15:43;;;;;;;44.48;22.65;;;;;;;5.14;83.01;99838.52;1661072;86;21113;-77
2021/11/04 00:18:10;;;;;;;40.45;23.73;;;;;;;5.17;83.02;99837.64;1662153;85;21591;-77
2021/11/04 00:20:37;;;;;;;34.95;22.70;;;;;;;5.13;83.11;99815.03;1662035;85;21134;-77
2021/11/04 00:23:04;;;;;;;37.83;23.22;;;;;;;5.26;83.05;99821.74;1665240;85;21449;-77
2021/11/04 00:25:31;;;;;;;39.48;23.15;;;;;;;5.31;83.09;99821.28;1664207;85;21567;-77
2021/11/04 00:27:57;;;;;;;34.67;22.67;;;;;;;5.36;83.13;99821.24;1660362;84;21092;-77
2021/11/04 00:30:23;;;;;;;34.43;22.00;;;;;;;5.40;83.14;99824.64;1662689;84;21105;-77
2021/11/04 00:32:53;;;;;;;39.03;23.80;;;;;;;5.45;83.16;99816.48;1662245;86;22292;-77
2021/11/04 00:35:20;;;;;;;35.98;22.40;;;;;;;5.49;83.14;99821.57;1661528;86;21090;-77
2021/11/04 00:37:46;;;;;;;38.63;21.42;;;;;;;5.53;83.16;99824.96;1664056;85;21616;-77
2021/11/04 00:40:17;;;;;;;38.55;23.07;;;;;;;5.57;83.15;99826.20;1662716;86;21678;-77
2021/11/04 00:42:43;;;;;;;39.25;23.27;;;;;;;5.59;83.15;99828.76;1661873;85;21610;-77
2021/11/04 00:45:11;;;;;;;36.33;22.65;;;;;;;5.64;83.18;99825.72;1660810;85;21088;-77
2021/11/04 00:47:37;;;;;;;37.83;22.32;;;;;;;5.68;83.20;99829.97;1651309;85;21457;-77
2021/11/04 00:50:06;;;;;;;38.58;22.98;;;;;;;5.71;83.24;99833.78;1663107;85;21118;-77
2021/11/04 00:52:33;;;;;;;37.78;21.75;;;;;;;5.76;83.29;99826.87;1661527;84;21620;-77
2021/11/04 00:54:59;;;;;;;34.15;21.20;;;;;;;5.81;83.24;99821.27;1663596;85;21124;-77
2021/11/04 00:57:26;;;;;;;38.63;22.40;;;;;;;5.84;83.17;99812.69;1662089;85;21028;-77
2021/11/04 00:59:52;;;;;;;30.43;21.12;;;;;;;5.86;83.23;99803.27;1663562;85;21555;-77
2021/11/04 01:02:19;;;;;;;;;;;;;;;5.89;83.28;99796.42;1664365;85;21529;-77
2021/11/04 01:04:45;;;;;;;35.98;20.62;;;;;;;5.92;83.40;99792.97;1661843;86;20168;-77
2021/11/04 01:07:11;;;;;;;37.17;21.33;;;;;;;5.94;83.34;99783.55;1662547;85;21591;-77
2021/11/04 01:09:37;;;;;;;34.63;21.50;;;;;;;5.97;83.36;99790.78;1661831;86;21208;-77
2021/11/04 01:12:04;;;;;;;35.38;22.70;;;;;;;6.01;83.35;99792.03;1630227;85;20991;-77
2021/11/04 01:14:30;;;;;;;37.55;21.90;;;;;;;6.03;83.37;99789.02;1635508;86;25818;-77
2021/11/04 01:16:56;;;;;;;35.07;20.83;;;;;;;6.06;83.38;99785.98;1630525;86;21060;-77
2021/11/04 01:19:22;;;;;;;36.20;22.50;;;;;;;6.09;83.38;99787.66;1654995;85;21093;-77
2021/11/04 01:21:48;;;;;;;37.47;21.97;;;;;;;6.12;83.40;99785.06;1654492;86;21022;-77
2021/11/04 01:24:14;;;;;;;33.97;22.10;;;;;;;6.15;83.43;99788.45;1652210;86;20919;-77
2021/11/04 01:26:40;;;;;;;32.97;20.67;;;;;;;6.18;83.45;99780.71;1653885;86;21627;-77
2021/11/04 01:29:06;;;;;;;38.67;22.07;;;;;;;6.21;83.46;99773.41;1647613;85;20923;-77
2021/11/04 01:31:33;;;;;;;35.38;22.35;;;;;;;6.24;83.46;99766.48;1654703;86;21516;-77
2021/11/04 01:33:59;;;;;;;35.03;21.65;;;;;;;6.27;83.46;99758.75;1654352;86;21082;-77
2021/11/04 01:36:25;;;;;;;33.63;22.07;;;;;;;6.30;83.44;99747.59;1655910;85;21060;-77
2021/11/04 01:38:51;;;;;;;38.17;22.83;;;;;;;6.31;83.44;99743.73;1657806;85;20993;-77
2021/11/04 01:41:17;;;;;;;38.08;21.37;;;;;;;6.33;83.48;99733.44;1655385;85;21054;-77
2021/11/04 01:43:44;;;;;;;37.53;22.93;;;;;;;6.36;83.47;99732.11;1654232;85;20997;-77
2021/11/04 01:46:12;;;;;;;33.45;20.60;;;;;;;6.38;83.47;99726.95;1655373;86;21056;-77
2021/11/04 01:48:39;;;;;;;38.60;21.85;;;;;;;6.39;83.48;99726.94;1656984;86;20934;-77
2021/11/04 01:51:06;;;;;;;34.70;21.25;;;;;;;6.40;83.48;99733.77;1628380;86;20970;-77
2021/11/04 01:53:32;;;;;;;37.05;22.95;;;;;;;6.42;83.52;99724.77;1657255;85;20914;-77
2021/11/04 01:56:00;;;;;;;34.85;20.77;;;;;;;6.44;83.54;99729.02;1654103;86;20944;-77
2021/11/04 01:58:26;;;;;;;34.70;21.73;;;;;;;6.46;83.57;99711.86;1654167;86;21862;-77
2021/11/04 02:00:54;;;;;;;39.18;23.75;;;;;;;6.49;83.55;99700.27;1656514;86;21160;-77
2021/11/04 02:03:35;;;;;;;36.73;22.27;;;;;;;6.51;83.56;99688.25;1635082;86;20927;-77
2021/11/04 02:06:49;;;;;;;32.88;20.72;;;;;;;6.53;83.56;99677.95;1656125;86;21501;-77
2021/11/04 02:09:29;;;;;;;37.48;21.62;;;;;;;6.54;83.55;99672.80;1655378;86;20892;-77
2021/11/04 02:12:00;;;;;;;35.13;21.60;;;;;;;6.54;83.53;99663.81;1648336;86;21510;-78
2021/11/04 02:14:43;;;;;;;33.50;21.00;;;;;;;6.55;83.53;99661.66;1628427;86;21117;-78
2021/11/04 02:17:11;;;;;;;34.92;22.50;;;;;;;6.56;83.56;99661.22;1655597;85;21552;-77
2021/11/04 02:19:49;;;;;;;;;;;;;;;6.57;83.60;99656.06;1665233;84;21100;-77
2021/11/04 02:22:46;;;;;;;31.37;19.52;;;;;;;6.59;83.70;99667.16;1660625;85;20168;-77
2021/11/04 02:25:28;;;;;;;36.95;20.95;;;;;;;6.61;83.60;99664.57;1590241;89;21209;-78
2021/11/04 02:27:58;;;;;;;32.90;21.00;;;;;;;6.63;83.63;99662.39;1640270;86;21088;-77
2021/11/04 02:30:27;;;;;;;38.83;20.80;;;;;;;6.66;83.65;99660.21;1662059;85;21081;-77
2021/11/04 02:32:54;;;;;;;35.73;21.70;;;;;;;6.68;83.67;99656.33;1662583;84;21164;-77
2021/11/04 02:35:27;;;;;;;35.20;20.80;;;;;;;6.70;83.66;99662.30;1662810;84;21079;-77
2021/11/04 02:37:55;;;;;;;;;;;;;;;6.73;83.70;99666.95;1664468;85;21120;-77
2021/11/04 02:40:24;;;;;;;32.55;20.43;;;;;;;6.77;83.78;99672.86;1663676;85;20500;-77
2021/11/04 02:42:52;;;;;;;34.85;21.40;;;;;;;6.78;83.71;99657.86;1639893;86;21084;-77
2021/11/04 02:45:25;;;;;;;38.50;20.50;;;;;;;6.80;83.71;99659.97;1664084;85;21080;-77
2021/11/04 02:47:51;;;;;;;31.42;20.65;;;;;;;6.83;83.70;99658.63;1663289;86;21005;-77
2021/11/04 02:50:18;;;;;;;;;;;;;;;6.85;83.72;99655.16;1664946;86;21480;-77
2021/11/04 02:52:44;;;;;;;30.20;18.17;;;;;;;6.88;83.80;99652.55;1663791;85;20188;-78
2021/11/04 02:55:10;;;;;;;31.87;19.37;;;;;;;6.90;83.74;99646.09;1663143;84;21073;-78
2021/11/04 02:57:45;;;;;;;32.65;20.68;;;;;;;6.93;83.73;99640.91;1663383;85;21110;-78
2021/11/04 03:00:15;;;;;;;29.25;18.70;;;;;;;6.95;83.75;99635.30;1662200;86;21025;-77
2021/11/04 03:02:43;;;;;;;32.35;19.42;;;;;;;6.98;83.76;99634.81;1665506;84;20926;-77
2021/11/04 03:05:09;;;;;;;27.13;18.85;;;;;;;7.00;83.74;99630.94;1665022;84;21349;-77
2021/11/04 03:07:35;;;;;;;30.20;19.80;;;;;;;7.02;83.79;99621.48;1642169;86;20917;-77
2021/11/04 03:10:02;;;;;;;33.58;19.48;;;;;;;7.05;83.80;99621.86;1663231;85;20966;-77
2021/11/04 03:12:28;;;;;;;30.35;19.80;;;;;;;7.08;83.78;99621.38;1635066;86;20934;-77
2021/11/04 03:14:56;;;;;;;30.77;18.83;;;;;;;7.11;83.81;99614.89;1663291;86;20892;-77
2021/11/04 03:17:22;;;;;;;30.70;18.50;;;;;;;7.15;83.82;99609.26;1664417;84;20937;-77
2021/11/04 03:19:48;;;;;;;25.57;17.92;;;;;;;7.17;83.80;99617.35;1663514;85;20958;-77
2021/11/04 03:22:14;;;;;;;24.70;17.37;;;;;;;7.19;83.82;99607.89;1664916;84;21462;-77
2021/11/04 03:24:40;;;;;;;27.67;18.73;;;;;;;7.21;83.81;99606.14;1664429;85;20967;-77
2021/11/04 03:27:08;;;;;;;27.85;17.60;;;;;;;7.22;83.85;99607.83;1664924;84;20962;-77
2021/11/04 03:29:40;;;;;;;26.60;17.87;;;;;;;7.25;83.85;99610.78;1663820;85;20957;-77
2021/11/04 03:32:14;;;;;;;27.98;18.17;;;;;;;7.29;83.87;99613.67;1663465;84;20902;-77
2021/11/04 03:34:43;;;;;;;33.30;17.82;;;;;;;7.30;83.84;99610.23;1662963;85;21354;-77
2021/11/04 03:37:11;;;;;;;31.33;17.92;;;;;;;7.33;83.83;99607.59;1639207;86;20935;-77
2021/11/04 03:39:38;;;;;;;30.15;18.05;;;;;;;7.35;83.85;99609.70;1665188;85;20886;-77
2021/11/04 03:42:05;;;;;;;28.75;18.20;;;;;;;7.36;83.86;99602.84;1641037;86;21416;-77
2021/11/04 03:44:32;;;;;;;28.65;16.65;;;;;;;7.38;83.90;99603.22;1660228;84;20989;-77
2021/11/04 03:46:58;;;;;;;;;;;;;;;7.40;83.89;99597.61;1644930;86;20903;-77
2021/11/04 03:49:25;;;;;;;29.85;16.97;;;;;;;7.41;83.97;99593.31;1665305;84;28168;-77
2021/11/04 03:51:54;;;;;;;25.70;17.30;;;;;;;7.42;83.93;99582.15;1663347;85;20935;-77
2021/11/04 03:54:22;;;;;;;25.48;17.15;;;;;;;7.43;83.93;99581.27;1664765;85;20966;-77
2021/11/04 03:56:53;;;;;;;26.20;17.95;;;;;;;7.45;83.91;99584.22;1663167;84;20893;-77
2021/11/04 03:59:20;;;;;;;24.18;17.17;;;;;;;7.47;83.96;99586.77;1642032;86;20981;-77
2021/11/04 04:01:46;;;;;;;;;;;;;;;7.49;83.93;99587.58;1666982;85;21453;-77
2021/11/04 04:04:12;;;;;;;29.12;17.12;;;;;;;7.50;84.02;99589.27;1664414;84;20089;-77
2021/11/04 04:06:39;;;;;;;28.60;18.12;;;;;;;7.51;83.98;99590.97;1664503;85;20962;-77
2021/11/04 04:09:07;;;;;;;28.95;16.70;;;;;;;7.52;83.96;99596.08;1663274;85;21404;-77
2021/11/04 04:11:33;;;;;;;27.10;16.77;;;;;;;7.54;83.96;99587.05;1642130;86;21536;-77
2021/11/04 04:14:00;;;;;;;22.20;15.90;;;;;;;7.54;83.96;99589.19;1639249;86;20868;-77
2021/11/04 04:16:26;;;;;;;24.43;16.55;;;;;;;7.57;83.99;99590.41;1635106;86;21057;-77
2021/11/04 04:18:52;;;;;;;26.12;16.48;;;;;;;7.58;83.99;99588.69;1663376;84;21013;-77
2021/11/04 04:21:22;;;;;;;21.00;15.68;;;;;;;7.60;83.99;99598.50;1663944;85;20901;-77
2021/11/04 04:23:48;;;;;;;24.15;16.50;;;;;;;7.61;83.99;99602.33;1652834;85;20950;-77
2021/11/04 04:26:14;;;;;;;31.83;18.87;;;;;;;7.61;84.00;99610.05;1663270;85;20953;-77
2021/11/04 04:28:40;;;;;;;22.85;16.35;;;;;;;7.63;83.98;99607.45;1655231;85;21424;-77
2021/11/04 04:31:06;;;;;;;28.80;17.80;;;;;;;7.64;83.96;99609.98;1663576;86;20974;-77
2021/11/04 04:33:32;;;;;;;24.67;16.90;;;;;;;7.64;83.99;99603.55;1665201;84;21422;-77
2021/11/04 04:35:58;;;;;;;24.20;16.37;;;;;;;7.64;84.00;99598.41;1641142;86;21413;-77
2021/11/04 04:38:25;;;;;;;25.43;16.95;;;;;;;7.64;84.03;99598.41;1663187;84;20922;-77
2021/11/04 04:40:52;;;;;;;27.17;16.85;;;;;;;7.68;84.05;99604.78;1638827;86;20941;-77
2021/11/04 04:43:18;;;;;;;24.87;15.97;;;;;;;7.68;84.05;99595.78;1664792;84;21620;-77
2021/11/04 04:45:44;;;;;;;24.20;15.83;;;;;;;7.72;84.03;99583.26;1660767;85;21122;-77
2021/11/04 04:48:11;;;;;;;22.83;15.97;;;;;;;7.72;84.03;99583.26;1662060;85;21414;-77
2021/11/04 04:50:39;;;;;;;24.75;15.72;;;;;;;7.74;84.08;99582.78;1659468;85;21514;-77
2021/11/04 04:53:07;;;;;;;21.57;15.00;;;;;;;7.75;84.10;99575.47;1659403;85;21460;-78
2021/11/04 04:55:34;;;;;;;25.00;15.23;;;;;;;7.76;84.10;99572.02;1662983;84;21480;-78
2021/11/04 04:58:00;;;;;;;;;;;;;;;7.78;84.10;99565.11;1666650;85;20942;-78
2021/11/04 05:00:27;;;;;;;23.95;15.13;;;;;;;7.79;84.23;99567.66;1665103;84;20590;-77
2021/11/04 05:02:54;;;;;;;22.45;15.63;;;;;;;7.81;84.16;99561.16;1641010;85;21014;-77
2021/11/04 05:05:20;;;;;;;22.35;14.60;;;;;;;7.83;84.16;99560.69;1663315;85;25157;-77
2021/11/04 05:07:48;;;;;;;22.65;15.03;;;;;;;7.84;84.14;99557.23;1663707;84;20926;-74
2021/11/04 05:10:14;;;;;;;24.15;14.50;;;;;;;7.85;84.15;99558.48;1665526;85;21392;-76
2021/11/04 05:12:42;;;;;;;20.90;14.80;;;;;;;7.84;84.13;99547.78;1665675;84;20929;-77
2021/11/04 05:15:09;;;;;;;25.65;14.78;;;;;;;7.85;84.14;99548.19;1639720;86;20942;-77
2021/11/04 05:17:35;;;;;;;24.65;14.58;;;;;;;7.86;84.14;99541.31;1657979;85;20878;-77
2021/11/04 05:20:06;;;;;;;24.57;14.97;;;;;;;7.86;84.16;99525.44;1656639;85;20863;-78
2021/11/04 05:22:33;;;;;;;21.27;13.40;;;;;;;7.86;84.14;99522.86;1657188;85;21361;-77
2021/11/04 05:24:59;;;;;;;20.02;13.78;;;;;;;7.87;84.17;99522.42;1637102;86;20961;-77
2021/11/04 05:27:25;;;;;;;22.23;13.83;;;;;;;7.89;84.23;99520.66;1657670;85;20973;-78
2021/11/04 05:29:52;;;;;;;21.95;13.10;;;;;;;7.90;84.21;99511.62;1654506;85;21536;-78
2021/11/04 05:32:18;;;;;;;20.25;13.08;;;;;;;7.93;84.20;99514.56;1655751;85;20993;-78
2021/11/04 05:34:45;;;;;;;18.48;12.40;;;;;;;7.94;84.21;99509.38;1656553;85;20954;-78
2021/11/04 05:37:12;;;;;;;19.85;12.85;;;;;;;7.96;84.22;99506.77;1657651;85;21391;-77
2021/11/04 05:39:39;;;;;;;19.87;12.17;;;;;;;7.97;84.21;99507.17;1645180;86;20902;-77
2021/11/04 05:42:07;;;;;;;;;;;;;;;7.99;84.21;99504.13;1658569;85;21333;-78
2021/11/04 05:44:38;;;;;;;19.85;12.53;;;;;;;8.01;84.33;99507.52;1654073;85;20152;-78
2021/11/04 05:47:06;;;;;;;22.32;12.15;;;;;;;8.01;84.23;99501.08;1636418;86;20978;-77
2021/11/04 05:49:33;;;;;;;17.35;12.25;;;;;;;8.02;84.24;99500.63;1658021;85;20922;-76
2021/11/04 05:51:59;;;;;;;23.02;12.82;;;;;;;8.03;84.23;99503.17;1634547;86;20965;-76
2021/11/04 05:54:25;;;;;;;17.62;11.83;;;;;;;8.04;84.23;99500.16;1644370;86;21053;-76
2021/11/04 05:56:51;;;;;;;18.27;12.43;;;;;;;8.05;84.26;99505.27;1654827;85;21997;-76
2021/11/04 05:59:17;;;;;;;19.00;12.07;;;;;;;8.06;84.27;99500.53;1653666;86;20898;-76
2021/11/04 06:01:43;;;;;;;16.45;12.98;;;;;;;8.07;84.27;99498.36;1656088;85;20875;-76
2021/11/04 06:04:09;;;;;;;18.27;12.33;;;;;;;8.08;84.27;99499.20;1656794;86;20930;-76
2021/11/04 06:06:35;;;;;;;17.55;12.25;;;;;;;8.09;84.26;99499.17;1658097;85;21336;-76
2021/11/04 06:09:01;;;;;;;18.73;11.57;;;;;;;8.11;84.29;99492.70;1658216;85;21372;-76
2021/11/04 06:11:27;;;;;;;18.42;12.73;;;;;;;8.12;84.30;99491.81;1632289;86;20933;-76
2021/11/04 06:13:53;;;;;;;18.02;12.35;;;;;;;8.14;84.34;99488.32;1657910;85;21569;-76
2021/11/04 06:16:19;;;;;;;17.10;11.48;;;;;;;8.16;84.37;99481.41;1614287;86;20970;-76
2021/11/04 06:18:45;;;;;;;23.07;10.77;;;;;;;8.18;84.36;99482.22;1633876;86;20874;-76
2021/11/04 06:21:14;;;;;;;21.00;13.07;;;;;;;8.20;84.36;99484.31;1656523;86;21416;-76
2021/11/04 06:23:41;;;;;;;16.97;12.40;;;;;;;8.21;84.41;99477.44;1656490;85;20886;-76
2021/11/04 06:26:07;;;;;;;21.45;11.83;;;;;;;8.20;84.41;99470.15;1655839;85;20946;-76
2021/11/04 06:28:33;;;;;;;16.42;11.53;;;;;;;8.22;84.44;99468.38;1657415;86;20900;-77
2021/11/04 06:30:59;;;;;;;18.50;11.78;;;;;;;8.21;84.43;99469.27;1656525;85;20966;-76
2021/11/04 06:33:25;;;;;;;16.50;10.98;;;;;;;8.20;84.43;99470.15;1655145;85;20976;-76
2021/11/04 06:35:53;;;;;;;15.10;10.67;;;;;;;8.20;84.48;99461.14;1654459;85;21628;-76
2021/11/04 06:38:20;;;;;;;15.48;11.55;;;;;;;8.21;84.51;99450.39;1656405;85;20966;-76
2021/11/04 06:40:46;;;;;;;15.00;11.00;;;;;;;8.22;84.52;99450.36;1655662;85;20887;-76
2021/11/04 06:43:12;;;;;;;17.63;11.87;;;;;;;8.22;84.53;99455.50;1656428;85;20964;-76
2021/11/04 06:45:49;;;;;;;18.52;12.28;;;;;;;8.24;84.54;99460.62;1657202;85;21339;-76
2021/11/04 06:48:26;;;;;;;16.77;11.48;;;;;;;8.24;84.55;99465.77;1656066;85;21485;-76
2021/11/04 06:50:58;;;;;;;18.62;10.95;;;;;;;8.25;84.59;99457.16;1650796;85;20982;-76
2021/11/04 06:53:27;;;;;;;16.23;11.40;;;;;;;8.25;84.55;99454.14;1656101;85;20939;-76
2021/11/04 06:55:54;;;;;;;20.68;13.13;;;;;;;8.26;84.55;99438.25;1655519;85;21417;-76
2021/11/04 06:58:30;;;;;;;22.98;12.63;;;;;;;8.23;84.54;99435.31;1651852;86;20930;-76
2021/11/04 07:00:59;;;;;;;20.90;12.75;;;;;;;8.21;84.48;99421.63;1655268;85;21413;-76
2021/11/04 07:03:29;;;;;;;17.45;12.98;;;;;;;8.20;84.55;99425.09;1656673;85;21366;-76
2021/11/04 07:06:00;;;;;;;21.02;13.10;;;;;;;8.20;84.57;99423.80;1656367;85;21438;-76
2021/11/04 07:08:27;;;;;;;21.57;13.78;;;;;;;8.23;84.59;99420.30;1637178;86;21013;-76
2021/11/04 07:11:01;;;;;;;19.70;14.05;;;;;;;8.23;84.61;99419.86;1635300;86;20949;-76
2021/11/04 07:13:31;;;;;;;21.80;13.18;;;;;;;8.24;84.61;99420.70;1657129;85;20922;-76
2021/11/04 07:16:00;;;;;;;20.08;13.62;;;;;;;8.25;84.61;99421.11;1660300;85;20949;-76
2021/11/04 07:18:27;;;;;;;17.62;12.68;;;;;;;8.25;84.62;99425.81;1665280;85;21378;-76
2021/11/04 07:21:01;;;;;;;20.08;13.88;;;;;;;8.27;84.66;99419.34;1664745;84;21488;-76
2021/11/04 07:23:41;;;;;;;19.07;13.75;;;;;;;8.29;84.65;99424.00;1669552;84;21023;-76
2021/11/04 07:26:08;;;;;;;19.17;13.95;;;;;;;8.30;84.70;99417.53;1664054;84;21416;-76
2021/11/04 07:28:40;;;;;;;21.02;14.13;;;;;;;8.33;84.76;99409.32;1665468;84;20946;-76
2021/11/04 07:31:11;;;;;;;19.62;13.98;;;;;;;8.33;84.71;99417.89;1664753;85;21438;-76
2021/11/04 07:33:46;;;;;;;18.23;13.20;;;;;;;8.36;84.75;99424.70;1665127;85;20911;-76
2021/11/04 07:36:19;;;;;;;19.40;14.13;;;;;;;8.37;84.75;99422.08;1667050;84;21413;-76
2021/11/04 07:38:47;;;;;;;23.05;15.40;;;;;;;8.39;84.78;99421.59;1668879;84;21397;-76
2021/11/04 07:41:15;;;;;;;20.77;15.20;;;;;;;8.41;84.75;99414.67;1641330;85;21809;-77
2021/11/04 07:43:41;;;;;;;20.92;15.13;;;;;;;8.43;84.78;99410.33;1663687;84;20883;-77
2021/11/04 07:46:07;;;;;;;18.10;14.35;;;;;;;8.46;84.80;99402.96;1642166;85;21521;-77
2021/11/04 07:48:34;;;;;;;18.98;14.85;;;;;;;8.47;84.81;99402.08;1666369;84;20985;-77
2021/11/04 07:51:00;;;;;;;20.40;14.78;;;;;;;8.49;84.84;99399.02;1641810;85;21410;-77
2021/11/04 07:53:27;;;;;;;19.62;14.75;;;;;;;8.50;84.80;99384.81;1667332;85;21430;-77
2021/11/04 07:55:54;;;;;;;18.77;13.43;;;;;;;8.52;84.85;99383.03;1666743;84;20943;-77
2021/11/04 07:58:21;;;;;;;22.13;15.48;;;;;;;8.53;84.83;99378.28;1665148;85;21454;-77
2021/11/04 08:00:48;;;;;;;20.82;14.07;;;;;;;8.54;84.80;99385.13;1665744;85;20985;-75
2021/11/04 08:03:14;;;;;;;22.17;14.28;;;;;;;8.55;84.84;99378.23;1614738;85;21018;-75
2021/11/04 08:05:41;;;;;;;20.20;14.30;;;;;;;8.57;84.86;99374.73;1666311;84;20898;-75
2021/11/04 08:08:08;;;;;;;24.23;15.83;;;;;;;8.58;84.88;99369.98;1668381;84;21021;-75
2021/11/04 08:10:34;;;;;;;19.55;16.10;;;;;;;8.59;84.86;99369.54;1667090;85;21553;-75
2021/11/04 08:13:07;;;;;;;20.08;15.85;;;;;;;8.60;84.91;99360.92;1666331;85;20974;-75
2021/11/04 08:15:31;;;;;;;21.87;16.75;;;;;;;8.55;84.91;99339.59;1663694;84;20914;-75
2021/11/04 08:17:59;;;;;;;24.98;16.87;;;;;;;8.61;84.90;99335.11;1666038;84;20890;-74
2021/11/04 08:20:26;;;;;;;19.75;15.08;;;;;;;8.61;84.94;99332.54;1668655;85;20894;-74
2021/11/04 08:22:52;;;;;;;21.62;16.50;;;;;;;8.61;84.95;99331.70;1666624;84;20958;-74
2021/11/04 08:25:25;;;;;;;19.52;16.00;;;;;;;8.62;85.03;99324.36;1664916;84;20882;-75
2021/11/04 08:27:51;;;;;;;24.98;16.37;;;;;;;8.60;84.97;99316.67;1664896;85;20981;-74
2021/11/04 08:30:17;;;;;;;24.20;16.95;;;;;;;8.62;85.03;99316.19;1645338;85;24376;-74
2021/11/04 08:32:45;;;;;;;21.70;16.93;;;;;;;8.63;85.05;99323.03;1666435;84;20981;-74
2021/11/04 08:35:12;;;;;;;23.42;17.85;;;;;;;8.62;85.03;99334.23;1666840;85;20961;-74
2021/11/04 08:37:38;;;;;;;21.75;16.97;;;;;;;8.62;85.05;99329.08;1661819;84;20962;-74
2021/11/04 08:40:07;;;;;;;25.80;19.30;;;;;;;8.61;85.05;99325.25;1666346;84;20939;-74
2021/11/04 08:42:34;;;;;;;24.00;18.82;;;;;;;8.61;85.09;99322.23;1658112;84;21728;-74
2021/11/04 08:45:00;;;;;;;27.42;18.37;;;;;;;8.62;85.14;99323.08;1657371;84;20964;-74
2021/11/04 08:47:27;;;;;;;28.02;19.77;;;;;;;8.62;85.16;99317.48;1663118;84;20914;-74
2021/11/04 08:49:54;;;;;;;21.97;18.75;;;;;;;8.62;85.14;99320.05;1665667;84;20925;-74
2021/11/04 08:52:23;;;;;;;25.68;19.05;;;;;;;8.60;85.16;99307.66;1664042;84;20947;-74
2021/11/04 08:54:49;;;;;;;22.55;18.62;;;;;;;8.59;85.20;99302.11;1638421;85;21024;-74
2021/11/04 08:57:15;;;;;;;;;;;;;;;8.58;85.19;99286.69;1667175;84;20914;-74
2021/11/04 08:59:42;;;;;;;29.48;22.77;;;;;;;8.58;85.37;99275.09;1664086;84;20195;-74
2021/11/04 09:02:16;;;;;;;32.67;23.25;;;;;;;8.56;85.24;99270.44;1664347;84;20977;-74
2021/11/04 09:04:45;;;;;;;26.97;21.48;;;;;;;8.53;85.21;99284.25;1660397;84;21012;-75
2021/11/04 09:07:18;;;;;;;28.73;20.27;;;;;;;8.52;85.35;99276.13;1663426;84;20905;-75
2021/11/04 09:09:45;;;;;;;26.33;20.35;;;;;;;8.52;85.34;99267.10;1663842;84;21561;-75
2021/11/04 09:12:12;;;;;;;25.25;19.70;;;;;;;8.50;85.35;99248.72;1666507;84;20903;-75
2021/11/04 09:14:38;;;;;;;22.27;19.27;;;;;;;8.48;85.38;99238.90;1665249;84;20895;-75
2021/11/04 09:17:04;;;;;;;23.55;18.40;;;;;;;8.47;85.35;99234.19;1659994;84;20938;-75
2021/11/04 09:19:31;;;;;;;24.80;19.70;;;;;;;8.48;85.29;99219.58;1654547;85;20872;-75
2021/11/04 09:21:58;;;;;;;27.02;20.27;;;;;;;8.44;85.44;99213.67;1656969;85;20887;-75
2021/11/04 09:24:25;;;;;;;27.52;19.82;;;;;;;8.45;85.53;99208.08;1656810;85;20966;-75
2021/11/04 09:26:51;;;;;;;24.05;19.42;;;;;;;8.42;85.71;99201.28;1656273;85;20926;-75
2021/11/04 09:29:18;;;;;;;24.40;20.40;;;;;;;8.42;85.84;99201.28;1655383;85;20977;-75
2021/11/04 09:31:44;;;;;;;27.37;20.60;;;;;;;8.41;85.97;99203.91;1656129;85;20914;-75
2021/11/04 09:34:10;;;;;;;26.20;19.43;;;;;;;8.40;86.09;99194.05;1656452;85;20977;-75
2021/11/04 09:36:36;;;;;;;28.92;21.35;;;;;;;8.38;86.10;99193.70;1655833;85;20941;-75
2021/11/04 09:39:05;;;;;;;22.97;19.63;;;;;;;8.36;85.98;99165.85;1655659;85;20930;-75
2021/11/04 09:41:32;;;;;;;29.82;21.48;;;;;;;8.32;86.20;99197.27;1656718;85;20895;-75
2021/11/04 09:44:02;;;;;;;22.02;19.60;;;;;;;8.31;86.20;99189.17;1653866;85;20931;-75
2021/11/04 09:46:32;;;;;;;24.32;20.00;;;;;;;8.30;86.13;99174.61;1654971;85;20954;-75
2021/11/04 09:48:58;;;;;;;38.20;22.35;;;;;;;8.30;86.23;99186.19;1630051;86;20922;-75
2021/11/04 09:51:24;;;;;;;30.80;21.80;;;;;;;8.28;86.29;99185.39;1649899;85;20959;-75
2021/11/04 09:53:51;;;;;;;29.30;22.65;;;;;;;8.28;86.32;99178.95;1657436;85;20891;-75
2021/11/04 09:56:18;;;;;;;39.45;23.95;;;;;;;8.26;86.30;99174.30;1654624;85;25029;-75
2021/11/04 09:58:45;;;;;;;32.03;20.88;;;;;;;8.24;86.33;99165.33;1653397;85;20942;-75
2021/11/04 10:01:26;;;;;;;30.68;22.22;;;;;;;8.24;86.39;99165.33;1656651;86;21004;-75
2021/11/04 10:03:54;;;;;;;33.60;22.40;;;;;;;8.23;86.37;99157.20;1656976;85;20975;-75
2021/11/04 10:06:30;;;;;;;30.92;22.48;;;;;;;8.21;86.42;99133.23;1637133;86;20932;-76
2021/11/04 10:09:02;;;;;;;36.50;23.10;;;;;;;8.19;86.46;99136.74;1651895;85;20990;-76
2021/11/04 10:11:35;;;;;;;33.70;23.73;;;;;;;8.18;86.57;99139.76;1653606;86;20960;-76
2021/11/04 10:14:07;;;;;;;35.75;25.05;;;;;;;8.18;86.49;99129.91;1605022;86;21365;-76
2021/11/04 10:16:34;;;;;;;29.52;22.00;;;;;;;8.16;86.62;99114.95;1652902;85;20910;-76
2021/11/04 10:19:10;;;;;;;33.15;24.23;;;;;;;8.15;86.54;99108.11;1705253;82;20987;-76
2021/11/04 10:21:40;;;;;;;60.20;30.45;;;;;;;8.13;86.60;99103.45;1709138;82;21339;-76
2021/11/04 10:24:11;;;;;;;61.90;33.20;;;;;;;8.13;86.60;99102.17;1704915;82;20958;-76
2021/11/04 10:26:39;;;;;;;31.52;22.62;;;;;;;8.14;86.66;99104.70;1669907;85;20918;-76
2021/11/04 10:29:08;;;;;;;69.77;33.33;;;;;;;8.15;86.72;99095.23;1667202;85;20984;-76
2021/11/04 10:31:41;;;;;;;44.53;26.10;;;;;;;8.15;86.68;99072.07;1710231;82;20957;-76
2021/11/04 10:34:32;;;;;;;75.50;33.70;;;;;;;8.17;86.76;99067.27;1706596;82;20933;-76
2021/11/04 10:37:19;;;;;;;48.55;28.55;;;;;;;8.19;86.81;99068.06;1702576;82;20954;-76
2021/11/04 10:39:47;;;;;;;90.85;44.55;;;;;;;8.20;86.79;99053.02;1668774;85;21367;-76
2021/11/04 10:42:13;;;;;;;69.20;35.28;;;;;;;8.22;86.84;99055.09;1709761;82;20934;-76
2021/11/04 10:44:39;;;;;;;59.85;39.92;;;;;;;8.23;86.84;99054.20;1710225;82;20908;-77
2021/11/04 10:47:06;;;;;;;38.33;27.13;;;;;;;8.24;86.88;99032.72;1641495;85;21480;-76
2021/11/04 10:49:45;;;;;;;37.05;28.42;;;;;;;8.25;86.88;99017.66;1644159;85;26588;-76
2021/11/04 10:52:16;;;;;;;33.40;25.65;;;;;;;8.26;86.86;99013.36;1631478;84;340624;-76
2021/11/04 10:54:45;;;;;;;34.90;25.65;;;;;;;8.26;86.79;99005.19;1671701;84;20942;-76
2021/11/04 10:57:12;;;;;;;32.67;24.25;;;;;;;8.27;86.88;98991.42;1670901;84;20935;-76
2021/11/04 10:59:48;;;;;;;28.38;22.58;;;;;;;8.29;86.95;98982.36;1649215;85;20969;-76
2021/11/04 11:02:17;;;;;;;29.25;23.15;;;;;;;8.30;86.91;98966.86;1676844;84;20932;-76
2021/11/04 11:04:43;;;;;;;30.10;24.20;;;;;;;8.30;87.04;98953.98;1662611;84;21299;-76
2021/11/04 11:07:10;;;;;;;33.25;25.12;;;;;;;8.33;86.91;98961.20;1672445;84;20921;-76
2021/11/04 11:09:37;;;;;;;48.38;30.57;;;;;;;8.33;86.96;98956.91;1678520;84;20972;-76
2021/11/04 11:12:06;;;;;;;27.40;22.42;;;;;;;8.34;86.97;98945.70;1673804;84;21440;-76
2021/11/04 11:14:37;;;;;;;28.52;22.82;;;;;;;8.36;87.06;98943.08;1666541;84;20953;-76
2021/11/04 11:17:08;;;;;;;26.85;22.10;;;;;;;8.37;87.18;98935.75;1669361;84;20993;-76
2021/11/04 11:19:44;;;;;;;25.50;20.23;;;;;;;8.38;87.13;98943.42;1664729;84;20897;-76
2021/11/04 11:22:14;;;;;;;29.80;20.32;;;;;;;8.40;87.11;98932.63;1668292;84;20937;-76
2021/11/04 11:24:43;;;;;;;27.67;19.27;;;;;;;8.42;87.04;98942.43;1618247;84;20925;-76
2021/11/04 11:27:16;;;;;;;28.77;20.62;;;;;;;8.43;87.03;98936.83;1668471;84;20964;-76
2021/11/04 11:29:46;;;;;;;27.20;20.17;;;;;;;8.44;87.12;98939.36;1673866;84;20911;-76
2021/11/04 11:32:21;;;;;;;25.65;19.67;;;;;;;8.46;87.17;98927.27;1636925;84;20929;-76
2021/11/04 11:34:48;;;;;;;26.93;20.45;;;;;;;8.48;87.13;98912.60;1666766;84;20977;-76